Time;durP1;ratioP1;P1;durP2;ratioP2;P2;SDS_P1;SDS_P2;PMS_P1;PMS_P2;Temp;Humidity;BMP_temperature;BMP_pressure;BME280_temperature;BME280_humidity;BME280_pressure;Samples;Min_cycle;Max_cycle;Signal;HPM_P1;HPM_P2
2021/04/03 00:00:29;;;;;;;19.17;11.02;;;;;;;1.22;82.32;93306.97;2115067;28;20050;-82
2021/04/03 00:01:29;;;;;;;16.05;11.20;;;;;;;1.12;82.33;93317.34;2099997;28;20028;-80
2021/04/03 00:02:30;;;;;;;17.48;11.05;;;;;;;1.15;82.28;93311.38;2092554;28;20021;-80
2021/04/03 00:03:31;;;;;;;21.73;11.60;;;;;;;1.13;82.73;93318.84;2106853;28;20028;-81
2021/04/03 00:04:31;;;;;;;18.77;11.13;;;;;;;1.08;82.51;93313.88;2106629;28;20027;-81
2021/04/03 00:05:32;;;;;;;16.02;10.88;;;;;;;1.08;82.73;93311.25;2112291;28;20031;-82
2021/04/03 00:06:33;;;;;;;17.85;11.75;;;;;;;0.95;82.89;93314.03;2090088;28;20060;-81
2021/04/03 00:07:34;;;;;;;16.27;11.07;;;;;;;0.99;83.27;93325.41;2092206;28;20159;-81
2021/04/03 00:08:35;;;;;;;19.63;11.35;;;;;;;1.04;83.28;93321.72;2106697;28;20143;-81
2021/04/03 00:09:36;;;;;;;16.92;11.35;;;;;;;0.95;83.13;93318.53;2106761;28;20407;-80
2021/04/03 00:10:44;;;;;;;18.73;12.20;;;;;;;0.93;82.91;93326.81;2106439;28;20023;-81
2021/04/03 00:11:44;;;;;;;22.33;12.57;;;;;;;0.93;83.04;93329.44;2107850;28;20028;-81
2021/04/03 00:12:45;;;;;;;22.98;12.60;;;;;;;0.98;83.19;93329.16;2115150;28;20027;-81
2021/04/03 00:13:45;;;;;;;21.17;11.93;;;;;;;1.02;83.32;93329.22;2115210;28;20019;-80
2021/04/03 00:14:47;;;;;;;21.10;12.95;;;;;;;0.99;83.32;93329.91;2114693;28;20027;-81
2021/04/03 00:15:47;;;;;;;21.60;12.40;;;;;;;1.02;82.82;93331.09;2106807;28;20027;-80
2021/04/03 00:16:48;;;;;;;21.65;12.27;;;;;;;1.06;82.97;93335.31;2106512;28;20024;-81
2021/04/03 00:17:49;;;;;;;19.33;11.95;;;;;;;1.04;82.73;93339.38;2106749;28;20024;-80
2021/04/03 00:18:49;;;;;;;18.25;11.82;;;;;;;1.00;82.77;93334.81;2115071;28;20115;-80
2021/04/03 00:19:54;;;;;;;20.70;12.30;;;;;;;1.05;82.98;93331.13;2115054;28;20063;-81
2021/04/03 00:20:55;;;;;;;18.55;11.20;;;;;;;0.95;82.56;93335.09;2099378;28;20056;-80
2021/04/03 00:21:55;;;;;;;20.67;11.82;;;;;;;1.04;83.02;93339.38;2115065;28;20028;-81
2021/04/03 00:22:57;;;;;;;20.95;12.23;;;;;;;1.04;83.32;93336.75;2132267;27;20033;-82
2021/04/03 00:23:57;;;;;;;18.23;11.95;;;;;;;1.13;83.12;93334.66;2112832;28;20634;-81
2021/04/03 00:24:57;;;;;;;18.85;13.07;;;;;;;1.07;82.48;93330.78;2104199;28;20036;-80
2021/04/03 00:25:58;;;;;;;19.23;12.30;;;;;;;1.10;82.89;93330.06;2101765;28;20062;-80
2021/04/03 00:26:58;;;;;;;18.83;11.88;;;;;;;1.11;82.60;93329.75;2106501;28;20723;-81
2021/04/03 00:28:00;;;;;;;23.17;12.23;;;;;;;1.16;82.66;93320.78;2106576;28;20612;-81
2021/04/03 00:29:00;;;;;;;20.17;11.43;;;;;;;1.04;82.35;93326.22;2098378;28;20123;-80
2021/04/03 00:30:14;;;;;;;19.50;12.90;;;;;;;1.04;81.70;93331.47;2098004;28;20085;-81
2021/04/03 00:31:14;;;;;;;20.38;11.80;;;;;;;1.02;82.29;93331.09;2101678;28;20054;-80
2021/04/03 00:32:15;;;;;;;18.98;12.35;;;;;;;0.97;83.10;93318.97;2115004;28;20097;-80
2021/04/03 00:33:15;;;;;;;20.63;12.95;;;;;;;0.89;82.83;93323.34;2106642;28;20074;-81
2021/04/03 00:34:16;;;;;;;17.60;12.13;;;;;;;0.85;82.44;93321.75;2097968;28;20028;-80
2021/04/03 00:35:19;;;;;;;28.02;13.00;;;;;;;0.83;82.50;93324.72;2097872;28;20412;-80
2021/04/03 00:36:19;;;;;;;22.38;12.23;;;;;;;0.86;83.13;93323.28;2107052;27;20084;-79
2021/04/03 00:37:20;;;;;;;20.65;12.98;;;;;;;0.79;83.34;93329.19;2106646;28;20024;-81
2021/04/03 00:38:20;;;;;;;19.10;12.38;;;;;;;0.85;83.46;93327.03;2098153;28;20114;-81
2021/04/03 00:39:20;;;;;;;25.08;13.48;;;;;;;0.90;82.61;93322.22;2114799;28;20028;-80
2021/04/03 00:40:26;;;;;;;21.63;13.27;;;;;;;0.78;82.72;93317.13;2117768;27;20024;-80
2021/04/03 00:41:26;;;;;;;22.95;13.18;;;;;;;0.70;83.29;93318.88;2098568;28;20040;-80
2021/04/03 00:42:26;;;;;;;19.88;13.25;;;;;;;0.80;83.19;93322.81;2106587;28;20028;-80
2021/04/03 00:43:27;;;;;;;20.73;12.95;;;;;;;0.79;83.45;93321.28;2114736;28;20495;-81
2021/04/03 00:44:27;;;;;;;23.55;13.15;;;;;;;0.73;83.28;93323.44;2105437;28;20097;-82
2021/04/03 00:45:28;;;;;;;22.30;13.77;;;;;;;0.74;83.57;93322.31;2097899;28;20086;-81
2021/04/03 00:46:28;;;;;;;20.10;13.30;;;;;;;0.77;83.34;93314.84;2097836;28;20035;-81
2021/04/03 00:47:29;;;;;;;20.35;13.43;;;;;;;0.72;83.21;93321.16;2089725;28;20025;-81
2021/04/03 00:48:29;;;;;;;26.17;13.50;;;;;;;0.66;83.70;93319.91;2098013;28;20497;-81
2021/04/03 00:49:30;;;;;;;20.90;12.75;;;;;;;0.72;83.85;93321.16;2112852;28;20030;-81
2021/04/03 00:50:34;;;;;;;20.38;12.77;;;;;;;0.71;83.34;93312.50;2097836;28;20090;-80
2021/04/03 00:51:35;;;;;;;20.80;13.13;;;;;;;0.78;83.59;93316.38;2115800;27;20092;-81
2021/04/03 00:52:36;;;;;;;19.98;12.95;;;;;;;0.83;82.98;93316.81;2114882;28;20536;-80
2021/04/03 00:53:37;;;;;;;25.55;13.70;;;;;;;0.83;83.10;93311.56;2114885;27;20027;-81
2021/04/03 00:54:37;;;;;;;19.83;12.80;;;;;;;0.81;83.48;93311.16;2114632;28;20089;-81
2021/04/03 00:55:38;;;;;;;20.10;12.93;;;;;;;0.83;83.50;93313.44;2095646;28;20028;-81
2021/04/03 00:56:39;;;;;;;22.25;12.90;;;;;;;0.83;83.28;93311.56;2089858;28;20421;-81
2021/04/03 00:57:39;;;;;;;18.48;12.90;;;;;;;0.83;82.78;93308.19;2097868;28;20074;-80
2021/04/03 00:58:40;;;;;;;21.90;13.23;;;;;;;0.74;83.00;93313.66;2089653;28;20024;-81
2021/04/03 00:59:41;;;;;;;20.25;12.80;;;;;;;0.70;83.81;93308.34;2097730;28;20051;-80
2021/04/03 01:00:42;;;;;;;22.58;12.68;;;;;;;0.92;83.74;93306.88;2122640;27;20027;-81
2021/04/03 01:01:43;;;;;;;19.27;12.80;;;;;;;0.96;82.95;93307.66;2114702;28;20030;-81
2021/04/03 01:02:44;;;;;;;19.98;13.35;;;;;;;0.87;83.00;93312.38;2106298;28;20079;-81
2021/04/03 01:03:44;;;;;;;21.88;12.82;;;;;;;0.86;82.75;93304.84;2122997;27;20448;-80
2021/04/03 01:04:45;;;;;;;21.63;13.25;;;;;;;0.84;82.92;93309.72;2106061;28;20032;-80
2021/04/03 01:05:45;;;;;;;22.40;13.65;;;;;;;0.92;83.51;93308.72;2089451;28;20028;-81
2021/04/03 01:06:45;;;;;;;22.25;13.35;;;;;;;0.81;82.30;93302.50;2098224;28;20032;-81
2021/04/03 01:07:47;;;;;;;19.25;12.98;;;;;;;0.74;82.48;93301.25;2109163;28;20023;-81
2021/04/03 01:08:47;;;;;;;21.27;12.60;;;;;;;0.82;83.19;93310.06;2098254;28;20052;-81
2021/04/03 01:09:48;;;;;;;22.13;12.63;;;;;;;0.82;82.96;93311.94;2089646;28;20525;-81
2021/04/03 01:10:52;;;;;;;20.45;12.75;;;;;;;0.79;82.63;93318.66;2097637;28;20115;-81
2021/04/03 01:12:11;;;;;;;20.05;13.00;;;;;;;0.77;82.70;93320.09;2090040;28;20552;-82
2021/04/03 01:13:11;;;;;;;20.85;13.02;;;;;;;0.77;83.51;93320.88;2094611;28;20056;-81
2021/04/03 01:14:23;;;;;;;24.42;13.65;;;;;;;0.79;83.30;93323.94;2097327;28;20441;-80
2021/04/03 01:15:40;;;;;;;22.60;13.13;;;;;;;0.81;82.75;93319.06;2116127;28;20104;-81
2021/04/03 01:16:57;;;;;;;20.40;11.70;;;;;;;0.86;82.72;93323.28;2114357;28;20024;-81
2021/04/03 01:18:00;;;;;;;21.40;12.02;;;;;;;0.86;82.83;93320.66;2100159;28;20044;-80
2021/04/03 01:19:34;;;;;;;18.88;12.38;;;;;;;0.90;82.71;93321.47;2111020;28;20043;-81
2021/04/03 01:20:42;;;;;;;20.98;12.23;;;;;;;0.90;82.65;93321.47;2089815;28;20036;-81
2021/04/03 01:21:52;;;;;;;21.05;12.55;;;;;;;1.06;82.74;93313.50;2083395;28;20079;-81
2021/04/03 01:23:02;;;;;;;23.47;12.97;;;;;;;0.91;82.02;93320.34;2091691;28;20687;-81
2021/04/03 01:24:02;;;;;;;;;;;;;;;0.87;82.68;93328.19;2103072;28;21045;-81
2021/04/03 01:25:18;;;;;;;17.83;11.82;;;;;;;0.82;82.92;93317.94;2100592;28;19930;-80
2021/04/03 01:26:42;;;;;;;18.40;11.63;;;;;;;0.95;83.73;93314.03;2108937;28;20035;-81
2021/04/03 01:27:53;;;;;;;20.65;13.35;;;;;;;0.80;82.59;93316.78;2112372;28;20031;-81
2021/04/03 01:29:15;;;;;;;19.77;12.27;;;;;;;0.92;82.03;93324.50;2107785;27;20032;-82
2021/04/03 01:30:18;;;;;;;21.58;12.13;;;;;;;0.89;81.83;93325.97;2108668;28;20169;-80
2021/04/03 01:31:20;;;;;;;20.80;11.88;;;;;;;0.83;81.75;93324.72;2097508;28;20032;-81
2021/04/03 01:32:28;;;;;;;20.40;12.65;;;;;;;0.83;82.51;93323.97;2089576;28;20670;-81
2021/04/03 01:33:31;;;;;;;21.75;12.85;;;;;;;0.92;81.86;93321.88;2090416;28;20027;-80
2021/04/03 01:34:35;;;;;;;21.58;13.20;;;;;;;1.03;82.35;93322.81;2097861;28;20039;-81
2021/04/03 01:35:40;;;;;;;21.83;13.07;;;;;;;0.90;82.40;93327.50;2097553;28;20025;-80
2021/04/03 01:36:42;;;;;;;18.63;12.63;;;;;;;0.87;82.42;93322.91;2090289;28;20025;-81
2021/04/03 01:37:51;;;;;;;23.30;13.80;;;;;;;0.94;82.22;93317.03;2097658;28;20019;-82
2021/04/03 01:38:59;;;;;;;22.73;12.77;;;;;;;0.97;82.21;93317.09;2102766;28;20024;-82
2021/04/03 01:40:00;;;;;;;18.10;13.30;;;;;;;1.07;82.48;93315.75;2106861;28;20380;-81
2021/04/03 01:41:02;;;;;;;22.13;12.88;;;;;;;1.12;82.45;93323.38;2099741;28;20113;-82
2021/04/03 01:42:06;;;;;;;22.08;13.77;;;;;;;1.19;82.56;93320.09;2104497;28;20050;-80
2021/04/03 01:43:10;;;;;;;19.73;12.85;;;;;;;0.94;81.44;93327.56;2098318;28;20024;-81
2021/04/03 01:44:15;;;;;;;23.88;13.00;;;;;;;0.90;81.60;93324.84;2097425;28;20024;-82
2021/04/03 01:45:19;;;;;;;19.63;13.63;;;;;;;0.98;83.10;93323.88;2089714;28;20052;-81
2021/04/03 01:46:25;;;;;;;19.70;13.13;;;;;;;1.10;83.77;93315.06;2098354;27;20115;-81
2021/04/03 01:47:29;;;;;;;18.60;12.15;;;;;;;1.08;83.15;93327.03;2110207;27;20522;-81
2021/04/03 01:48:32;;;;;;;19.52;12.93;;;;;;;1.00;81.86;93321.66;2109830;27;20711;-81
2021/04/03 01:49:35;;;;;;;24.30;12.65;;;;;;;1.12;81.37;93312.06;2113728;27;20172;-82
2021/04/03 01:50:38;;;;;;;17.70;12.40;;;;;;;1.08;81.39;93316.50;2113587;28;20088;-81
2021/04/03 01:51:43;;;;;;;21.83;13.13;;;;;;;0.93;80.70;93316.28;2089844;28;20052;-81
2021/04/03 01:52:46;;;;;;;19.33;12.40;;;;;;;0.88;81.59;93313.94;2106532;28;20032;-80
2021/04/03 01:53:48;;;;;;;18.52;13.07;;;;;;;1.02;81.91;93310.78;2114171;28;20038;-80
2021/04/03 01:54:51;;;;;;;20.40;13.10;;;;;;;0.99;81.84;93317.50;2105674;28;20024;-81
2021/04/03 01:55:54;;;;;;;21.35;12.80;;;;;;;0.97;82.04;93313.72;2097588;28;20024;-80
2021/04/03 01:56:57;;;;;;;22.00;12.98;;;;;;;0.94;81.25;93309.91;2106221;28;20035;-80
2021/04/03 01:59:30;;;;;;;21.02;11.23;;;;;;;0.96;81.35;93310.28;2114679;27;20046;-80
2021/04/03 02:00:33;;;;;;;20.30;12.00;;;;;;;0.95;81.04;93315.91;2099283;28;20032;-80
2021/04/03 02:01:42;;;;;;;19.10;11.80;;;;;;;1.05;82.29;93322.47;2104936;28;20058;-79
2021/04/03 02:04:17;;;;;;;21.80;12.05;;;;;;;0.83;82.19;93316.81;2125732;27;20196;-80
2021/04/03 02:05:20;;;;;;;23.55;12.43;;;;;;;0.83;82.41;93313.44;2113252;28;20046;-79
2021/04/03 02:06:21;;;;;;;18.35;12.50;;;;;;;0.81;81.92;93320.94;2096836;28;20037;-79
2021/04/03 02:07:24;;;;;;;20.90;11.70;;;;;;;0.72;82.24;93321.16;2096456;28;20079;-80
2021/04/03 02:08:27;;;;;;;21.00;13.25;;;;;;;0.75;82.55;93312.56;2097061;28;20032;-80
2021/04/03 02:09:28;;;;;;;20.52;13.18;;;;;;;0.84;83.19;93314.97;2104859;28;20408;-80
2021/04/03 02:10:31;;;;;;;22.55;12.10;;;;;;;0.86;82.08;93315.38;2096514;28;20036;-80
2021/04/03 02:11:44;;;;;;;19.02;12.43;;;;;;;0.80;81.80;93314.16;2104826;28;20051;-79
2021/04/03 02:12:46;;;;;;;20.42;11.93;;;;;;;0.71;81.91;93317.75;2099863;28;20029;-81
2021/04/03 02:13:47;;;;;;;19.95;11.20;;;;;;;0.70;82.33;93318.09;2105089;28;20060;-82
2021/04/03 02:14:50;;;;;;;18.05;12.13;;;;;;;0.69;82.25;93321.84;2104621;28;20029;-81
2021/04/03 02:15:52;;;;;;;20.95;12.23;;;;;;;0.82;82.77;93320.56;2091772;28;20542;-82
2021/04/03 02:16:53;;;;;;;19.08;11.45;;;;;;;0.76;82.12;93321.97;2104681;28;20458;-80
2021/04/03 02:17:56;;;;;;;21.40;11.82;;;;;;;0.73;82.17;93318.16;2104875;28;20055;-80
2021/04/03 02:18:58;;;;;;;22.08;12.15;;;;;;;0.92;82.65;93321.88;2104932;28;20060;-82
2021/04/03 02:19:59;;;;;;;21.33;12.13;;;;;;;0.78;81.79;93319.00;2102597;28;20135;-82
2021/04/03 02:21:07;;;;;;;17.90;12.15;;;;;;;0.76;82.00;93316.72;2096424;28;20087;-82
2021/04/03 02:22:08;;;;;;;18.63;11.68;;;;;;;0.84;81.46;93305.22;2106608;28;20028;-81
2021/04/03 02:23:09;;;;;;;18.70;11.57;;;;;;;0.74;81.34;93319.69;2113165;28;20023;-82
2021/04/03 02:24:11;;;;;;;21.08;11.30;;;;;;;0.71;82.04;93315.13;2104616;28;20123;-82
2021/04/03 02:25:13;;;;;;;16.30;11.27;;;;;;;0.72;81.79;93316.66;2104858;28;20020;-82
2021/04/03 02:26:14;;;;;;;19.75;11.45;;;;;;;0.83;81.80;93322.09;2096356;28;20564;-83
2021/04/03 02:27:14;;;;;;;17.90;10.98;;;;;;;0.88;81.89;93321.03;2104391;28;20020;-82
2021/04/03 02:28:15;;;;;;;19.70;11.93;;;;;;;0.73;81.06;93314.78;2104745;28;20040;-81
2021/04/03 02:29:15;;;;;;;19.40;11.23;;;;;;;0.74;82.00;93318.91;2104524;28;20024;-81
2021/04/03 02:30:19;;;;;;;16.02;11.38;;;;;;;0.66;81.73;93307.53;2121626;28;20401;-82
2021/04/03 02:31:19;;;;;;;20.88;11.57;;;;;;;0.78;82.68;93306.59;2112998;28;20020;-81
2021/04/03 02:32:20;;;;;;;15.20;10.50;;;;;;;0.96;82.39;93314.81;2112837;28;20051;-81
2021/04/03 02:33:21;;;;;;;14.93;10.77;;;;;;;0.97;81.88;93301.31;2113008;28;20034;-82
2021/04/03 02:34:21;;;;;;;18.02;11.15;;;;;;;1.00;81.62;93318.25;2104533;28;20337;-81
2021/04/03 02:35:26;;;;;;;17.23;11.25;;;;;;;1.04;81.70;93307.78;2104613;28;20021;-82
2021/04/03 02:36:27;;;;;;;18.30;11.00;;;;;;;1.09;81.72;93307.50;2113396;28;20103;-82
2021/04/03 02:37:27;;;;;;;16.25;10.70;;;;;;;1.13;82.00;93310.97;2112906;28;20035;-82
2021/04/03 02:38:28;;;;;;;18.45;10.65;;;;;;;1.09;81.02;93318.03;2104479;28;20051;-80
2021/04/03 02:39:28;;;;;;;16.88;11.15;;;;;;;1.00;80.79;93307.72;2104464;28;20020;-81
2021/04/03 02:40:31;;;;;;;18.52;11.00;;;;;;;1.05;80.95;93306.69;2096120;28;20028;-82
2021/04/03 02:42:01;;;;;;;17.02;10.73;;;;;;;1.01;81.00;93290.84;2104952;28;20550;-81
2021/04/03 02:43:10;;;;;;;18.45;10.35;;;;;;;1.06;80.87;93305.59;2108823;28;20114;-82
2021/04/03 02:44:14;;;;;;;13.65;10.00;;;;;;;0.94;80.91;93298.63;2106431;28;20036;-81
2021/04/03 02:45:19;;;;;;;18.92;10.20;;;;;;;1.07;81.08;93297.34;2105006;28;20036;-81
2021/04/03 02:46:28;;;;;;;15.05;10.20;;;;;;;1.07;80.67;93296.56;2105014;28;20031;-82
2021/04/03 02:47:42;;;;;;;14.98;9.90;;;;;;;0.98;80.41;93294.94;2105558;28;20038;-81
2021/04/03 02:48:49;;;;;;;15.20;9.23;;;;;;;0.91;80.29;93294.78;2100002;28;20064;-81
2021/04/03 02:50:03;;;;;;;18.60;10.20;;;;;;;0.97;80.21;93295.28;2105928;28;20214;-82
2021/04/03 02:51:07;;;;;;;19.63;9.82;;;;;;;0.86;80.52;93296.97;2112888;28;20180;-82
2021/04/03 02:52:11;;;;;;;15.43;10.38;;;;;;;0.90;80.71;93295.16;2101675;28;20024;-82
2021/04/03 02:53:15;;;;;;;17.70;10.55;;;;;;;0.86;80.50;93291.69;2096555;28;20035;-81
2021/04/03 02:54:49;;;;;;;17.55;10.20;;;;;;;0.84;81.39;93293.94;2092616;28;20012;-81
2021/04/03 02:55:53;;;;;;;15.80;9.38;;;;;;;0.84;80.79;93304.47;2095788;28;20032;-81
2021/04/03 02:56:56;;;;;;;16.58;10.05;;;;;;;0.82;81.08;93296.13;2104458;28;20107;-82
2021/04/03 02:57:59;;;;;;;15.27;10.27;;;;;;;0.94;81.20;93309.91;2104454;28;20676;-81
2021/04/03 02:59:01;;;;;;;13.75;9.60;;;;;;;0.92;80.16;93312.13;2088025;28;20374;-81
2021/04/03 03:00:05;;;;;;;14.93;10.40;;;;;;;0.91;81.54;93309.84;2085909;28;20986;-82
2021/04/03 03:01:09;;;;;;;18.23;10.48;;;;;;;1.01;81.28;93296.13;2088477;28;20033;-82
2021/04/03 03:02:15;;;;;;;17.08;9.65;;;;;;;0.89;80.01;93299.66;2096352;28;20021;-81
2021/04/03 03:03:16;;;;;;;21.08;10.05;;;;;;;0.83;80.63;93301.03;2104996;28;20439;-81
2021/04/03 03:04:17;;;;;;;16.80;9.82;;;;;;;0.94;80.74;93288.84;2094115;28;20056;-82
2021/04/03 03:05:18;;;;;;;15.60;9.57;;;;;;;1.00;80.22;93294.56;2087721;28;20033;-80
2021/04/03 03:06:20;;;;;;;17.25;9.60;;;;;;;0.91;80.26;93294.03;2079578;28;20029;-81
2021/04/03 03:07:24;;;;;;;19.13;10.23;;;;;;;0.73;80.17;93299.00;2075984;28;20036;-81
2021/04/03 03:08:29;;;;;;;17.73;9.63;;;;;;;0.81;80.70;93305.16;2080331;28;20429;-82
2021/04/03 03:09:30;;;;;;;18.27;9.63;;;;;;;0.70;80.30;93297.84;2088259;28;20034;-82
2021/04/03 03:10:32;;;;;;;15.55;8.43;;;;;;;0.69;79.72;93301.56;2087648;28;20057;-81
2021/04/03 03:11:34;;;;;;;21.42;10.80;;;;;;;0.67;80.49;93301.16;2079711;28;20537;-82
2021/04/03 03:12:37;;;;;;;17.02;9.25;;;;;;;0.70;80.75;93300.47;2079374;28;20389;-82
2021/04/03 03:13:38;;;;;;;16.20;9.82;;;;;;;0.73;80.38;93291.09;2079913;28;20025;-82
2021/04/03 03:14:41;;;;;;;13.48;9.50;;;;;;;0.73;79.96;93302.38;2079315;28;20037;-82
2021/04/03 03:15:42;;;;;;;18.52;9.25;;;;;;;0.75;80.06;93294.91;2066054;28;20030;-79
2021/04/03 03:16:44;;;;;;;15.23;9.73;;;;;;;0.65;80.46;93286.81;2065965;28;20030;-81
2021/04/03 03:17:46;;;;;;;14.75;9.25;;;;;;;0.77;80.15;93294.56;2074178;28;20021;-81
2021/04/03 03:18:47;;;;;;;16.15;9.07;;;;;;;0.86;80.04;93295.09;2082226;28;20029;-82
2021/04/03 03:19:48;;;;;;;17.90;9.32;;;;;;;0.83;79.78;93301.03;2073969;28;20502;-82
2021/04/03 03:20:49;;;;;;;16.35;9.73;;;;;;;0.81;79.18;93294.63;2073997;28;20025;-80
2021/04/03 03:21:50;;;;;;;16.90;9.63;;;;;;;0.72;79.95;93303.50;2065965;28;20070;-82
2021/04/03 03:22:51;;;;;;;14.75;9.32;;;;;;;0.72;79.91;93297.47;2078776;28;20032;-81
2021/04/03 03:23:52;;;;;;;15.75;9.18;;;;;;;0.88;81.10;93298.16;2081815;28;20043;-81
2021/04/03 03:24:53;;;;;;;15.85;10.27;;;;;;;0.92;80.41;93290.28;2082128;28;20076;-83
2021/04/03 03:25:57;;;;;;;14.85;9.35;;;;;;;0.85;80.06;93282.28;2081936;28;20037;-82
2021/04/03 03:26:58;;;;;;;13.52;8.93;;;;;;;0.69;79.36;93295.53;2080662;28;20028;-81
2021/04/03 03:28:00;;;;;;;19.50;9.68;;;;;;;0.66;79.71;93288.31;2081861;28;20025;-81
2021/04/03 03:29:02;;;;;;;12.93;9.50;;;;;;;0.63;80.18;93291.69;2082117;28;20022;-81
2021/04/03 03:30:04;;;;;;;15.85;8.93;;;;;;;0.78;79.91;93295.31;2098631;28;20028;-82
2021/04/03 03:31:05;;;;;;;14.40;9.77;;;;;;;0.76;80.33;93293.03;2098572;28;20027;-83
2021/04/03 03:32:06;;;;;;;12.98;8.80;;;;;;;0.78;79.50;93293.44;2083345;28;20112;-82
2021/04/03 03:33:06;;;;;;;12.63;9.20;;;;;;;0.70;79.41;93291.78;2080788;28;20024;-81
2021/04/03 03:34:09;;;;;;;19.23;9.30;;;;;;;0.67;80.02;93292.50;2081893;28;20032;-80
2021/04/03 03:35:12;;;;;;;13.95;8.93;;;;;;;0.65;79.87;93290.19;2088535;28;20454;-80
2021/04/03 03:36:13;;;;;;;15.23;9.43;;;;;;;0.64;80.16;93293.94;2082215;28;20064;-80
2021/04/03 03:37:14;;;;;;;14.85;9.18;;;;;;;0.78;80.34;93290.81;2081476;28;20112;-82
2021/04/03 03:38:16;;;;;;;13.07;9.35;;;;;;;0.86;80.58;93295.09;2082335;28;20052;-82
2021/04/03 03:39:17;;;;;;;16.23;9.02;;;;;;;0.75;79.52;93291.53;2090293;28;20569;-81
2021/04/03 03:40:18;;;;;;;14.68;8.68;;;;;;;0.73;79.97;93297.13;2090285;28;20029;-80
2021/04/03 03:41:21;;;;;;;13.98;8.80;;;;;;;0.82;80.13;93294.25;2078305;28;20022;-81
2021/04/03 03:42:21;;;;;;;16.40;9.90;;;;;;;0.79;80.50;93292.34;2074768;28;20034;-80
2021/04/03 03:43:22;;;;;;;16.75;9.35;;;;;;;0.84;80.80;93296.56;2081869;28;20037;-81
2021/04/03 03:44:22;;;;;;;15.85;8.68;;;;;;;0.84;79.77;93299.97;2081872;28;20569;-81
2021/04/03 03:45:23;;;;;;;12.68;8.45;;;;;;;0.88;79.88;93302.63;2080887;28;20083;-80
2021/04/03 03:46:23;;;;;;;13.90;8.77;;;;;;;0.82;79.55;93301.41;2065804;28;20038;-80
2021/04/03 03:47:24;;;;;;;11.80;8.43;;;;;;;0.77;79.54;93296.44;2066464;28;20411;-81
2021/04/03 03:48:24;;;;;;;18.25;9.32;;;;;;;0.71;79.51;93293.34;2081879;28;20063;-82
2021/04/03 03:49:25;;;;;;;12.60;8.35;;;;;;;0.74;79.30;93297.88;2098399;28;20123;-81
2021/04/03 03:50:25;;;;;;;14.90;7.93;;;;;;;0.69;79.51;93295.53;2088842;28;20462;-81
2021/04/03 03:51:25;;;;;;;16.17;8.73;;;;;;;0.75;80.06;93297.53;2077674;28;20482;-81
2021/04/03 03:52:26;;;;;;;17.08;9.27;;;;;;;0.60;79.98;93298.38;2074803;28;20038;-81
2021/04/03 03:53:26;;;;;;;10.77;8.32;;;;;;;0.60;79.35;93297.63;2080338;28;20034;-81
2021/04/03 03:54:27;;;;;;;11.88;8.43;;;;;;;0.57;79.38;93299.09;2083127;28;20029;-82
2021/04/03 03:55:27;;;;;;;14.85;8.02;;;;;;;0.59;79.44;93296.09;2089996;28;20646;-82
2021/04/03 03:56:28;;;;;;;13.23;7.65;;;;;;;0.56;79.94;93296.78;2090084;28;20096;-82
2021/04/03 03:57:28;;;;;;;15.52;8.30;;;;;;;0.64;79.52;93298.44;2098287;28;20070;-81
2021/04/03 03:58:29;;;;;;;13.75;8.23;;;;;;;0.66;80.72;93299.63;2094146;28;20773;-81
2021/04/03 03:59:30;;;;;;;14.43;7.85;;;;;;;0.81;79.79;93298.00;2088233;28;20048;-82
2021/04/03 04:00:30;;;;;;;14.98;7.93;;;;;;;0.77;79.32;93304.31;2092060;28;20044;-83
2021/04/03 04:01:30;;;;;;;16.58;9.00;;;;;;;0.68;79.35;93300.03;2081914;28;20064;-81
2021/04/03 04:02:31;;;;;;;15.55;8.52;;;;;;;0.72;80.36;93300.88;2075464;28;20411;-82
2021/04/03 04:03:31;;;;;;;14.70;8.60;;;;;;;0.59;79.85;93293.47;2098252;28;20542;-82
2021/04/03 04:04:32;;;;;;;15.95;8.23;;;;;;;0.80;80.55;93293.09;2090656;28;20086;-82
2021/04/03 04:05:32;;;;;;;15.18;8.32;;;;;;;0.77;80.50;93293.81;2089453;28;20134;-82
2021/04/03 04:06:33;;;;;;;12.50;7.90;;;;;;;0.92;80.13;93288.44;2087665;28;20429;-81
2021/04/03 04:07:35;;;;;;;13.25;7.60;;;;;;;0.90;79.57;93288.03;2081518;28;20380;-82
2021/04/03 04:08:35;;;;;;;13.68;7.95;;;;;;;0.82;78.74;93286.38;2088796;28;20529;-83
2021/04/03 04:09:36;;;;;;;11.63;7.78;;;;;;;0.89;78.90;93286.50;2089906;28;20033;-82
2021/04/03 04:10:36;;;;;;;17.10;8.75;;;;;;;0.75;78.28;93294.16;2089894;28;20452;-81
2021/04/03 04:11:37;;;;;;;11.23;7.88;;;;;;;0.68;79.00;93286.88;2089991;28;20020;-82
2021/04/03 04:12:37;;;;;;;13.02;8.52;;;;;;;0.68;78.87;93288.75;2089883;28;20111;-83
2021/04/03 04:13:38;;;;;;;11.70;8.25;;;;;;;0.65;78.86;93290.19;2095207;28;20405;-82
2021/04/03 04:14:39;;;;;;;13.60;8.38;;;;;;;0.68;79.68;93286.88;2084783;28;20021;-82
2021/04/03 04:15:39;;;;;;;14.63;8.25;;;;;;;0.71;78.81;93282.81;2089927;28;20087;-80
2021/04/03 04:16:39;;;;;;;14.57;8.27;;;;;;;0.69;78.64;93285.00;2103091;28;20021;-81
2021/04/03 04:17:40;;;;;;;13.57;7.97;;;;;;;0.61;79.54;93289.38;2084776;28;20028;-82
2021/04/03 04:18:40;;;;;;;14.95;8.63;;;;;;;0.65;80.00;93286.81;2078281;28;20470;-81
2021/04/03 04:19:41;;;;;;;12.57;8.13;;;;;;;0.62;80.65;93285.66;2073474;28;20156;-83
2021/04/03 04:20:41;;;;;;;10.95;8.10;;;;;;;0.52;80.20;93288.06;2085176;28;20107;-81
2021/04/03 04:21:42;;;;;;;11.32;7.82;;;;;;;0.39;80.30;93284.81;2089906;28;20059;-82
2021/04/03 04:22:42;;;;;;;13.98;8.32;;;;;;;0.42;79.82;93279.66;2087470;28;20025;-82
2021/04/03 04:23:42;;;;;;;12.80;8.27;;;;;;;0.46;80.01;93287.59;2092051;28;20123;-81
2021/04/03 04:24:43;;;;;;;17.10;8.90;;;;;;;0.36;79.91;93288.94;2100277;28;20036;-82
2021/04/03 04:25:43;;;;;;;13.07;8.55;;;;;;;0.32;79.90;93288.09;2106060;28;20051;-82
2021/04/03 04:26:44;;;;;;;11.73;7.60;;;;;;;0.28;79.93;93295.16;2095314;28;20133;-82
2021/04/03 04:27:44;;;;;;;13.70;8.20;;;;;;;0.31;80.34;93291.06;2091634;28;20033;-80
2021/04/03 04:28:44;;;;;;;12.95;7.95;;;;;;;0.32;80.80;93298.63;2106518;28;20377;-82
2021/04/03 04:29:45;;;;;;;11.07;7.97;;;;;;;0.24;80.30;93292.44;2098014;28;20066;-82
2021/04/03 04:30:45;;;;;;;13.57;7.90;;;;;;;0.34;81.54;93299.00;2095455;28;20501;-82
2021/04/03 04:31:46;;;;;;;14.10;8.02;;;;;;;0.27;80.71;93300.75;2092565;28;20918;-82
2021/04/03 04:32:47;;;;;;;12.15;8.43;;;;;;;0.19;80.70;93297.97;2089524;28;20767;-83
2021/04/03 04:33:48;;;;;;;13.18;8.90;;;;;;;0.17;80.79;93302.81;2098240;28;20029;-81
2021/04/03 04:34:49;;;;;;;15.55;8.35;;;;;;;0.19;80.63;93300.63;2086438;28;20430;-82
2021/04/03 04:35:49;;;;;;;15.25;8.00;;;;;;;0.18;81.42;93300.97;2084801;28;20055;-82
2021/04/03 04:36:50;;;;;;;11.73;7.90;;;;;;;0.07;81.07;93305.22;2094756;28;20091;-82
2021/04/03 04:37:50;;;;;;;15.80;8.73;;;;;;;-0.01;82.05;93302.44;2084486;28;20504;-82
2021/04/03 04:38:50;;;;;;;12.77;8.23;;;;;;;0.00;81.19;93305.88;2086217;28;20045;-82
2021/04/03 04:39:51;;;;;;;17.05;8.70;;;;;;;0.08;81.53;93304.13;2093160;28;20032;-82
2021/04/03 04:40:51;;;;;;;16.40;10.07;;;;;;;0.05;81.37;93307.47;2093816;28;20048;-80
2021/04/03 04:41:52;;;;;;;18.35;10.65;;;;;;;0.06;81.66;93301.09;2094486;28;20052;-82
2021/04/03 04:42:54;;;;;;;10.45;8.88;;;;;;;-0.04;81.94;93302.41;2101366;28;20020;-83
2021/04/03 04:43:54;;;;;;;14.50;8.98;;;;;;;-0.12;81.94;93314.63;2085188;28;20025;-82
2021/04/03 04:44:55;;;;;;;15.55;7.90;;;;;;;-0.13;81.58;93307.84;2085248;28;20056;-82
2021/04/03 04:45:55;;;;;;;15.18;8.27;;;;;;;-0.12;82.63;93298.09;2097989;28;20386;-82
2021/04/03 04:46:55;;;;;;;13.82;8.20;;;;;;;-0.18;82.44;93302.06;2085545;28;20565;-81
2021/04/03 04:47:56;;;;;;;11.60;8.20;;;;;;;-0.14;82.98;93293.16;2089493;28;20059;-82
2021/04/03 04:48:56;;;;;;;12.80;8.02;;;;;;;-0.08;83.45;93304.19;2097782;28;20105;-81
2021/04/03 04:49:57;;;;;;;9.45;8.13;;;;;;;-0.09;82.99;93306.06;2089607;28;20025;-82
2021/04/03 04:50:57;;;;;;;15.70;8.73;;;;;;;-0.18;82.53;93305.47;2081381;28;20040;-82
2021/04/03 04:51:57;;;;;;;15.20;8.88;;;;;;;-0.28;82.99;93309.38;2089488;28;20075;-81
2021/04/03 04:52:58;;;;;;;14.00;8.38;;;;;;;-0.31;83.00;93307.47;2085551;28;20437;-81
2021/04/03 04:53:58;;;;;;;13.80;8.43;;;;;;;-0.29;83.49;93307.13;2077093;28;20018;-82
2021/04/03 04:54:59;;;;;;;13.23;8.15;;;;;;;-0.33;82.61;93309.66;2094004;28;20024;-81
2021/04/03 04:55:59;;;;;;;11.93;7.72;;;;;;;-0.30;82.95;93300.34;2097776;28;20094;-82